createdAt,value
2018-09-26T00:00:40.668Z,2.47
2018-09-26T00:03:18.309Z,2.20
2018-09-26T00:05:46.908Z,2.13
2018-09-26T00:08:17.588Z,2.30
2018-09-26T00:10:49.689Z,2.20
2018-09-26T00:13:18.013Z,2.30
2018-09-26T00:15:49.145Z,1.93
2018-09-26T00:18:23.686Z,2.13
2018-09-26T00:20:58.268Z,2.33
2018-09-26T00:26:06.041Z,2.60
2018-09-26T00:28:34.336Z,1.87
2018-09-26T00:31:05.673Z,2.47
2018-09-26T00:33:36.055Z,2.63
2018-09-26T00:36:04.793Z,2.10
2018-09-26T00:38:37.920Z,2.83
2018-09-26T00:41:06.049Z,2.70
2018-09-26T00:43:38.249Z,2.60
2018-09-26T00:46:12.314Z,2.30
2018-09-26T00:48:40.520Z,2.13
2018-09-26T00:51:11.420Z,3.10
2018-09-26T00:53:39.805Z,2.40
2018-09-26T00:56:07.902Z,2.53
2018-09-26T00:58:40.915Z,2.23
2018-09-26T01:01:11.692Z,2.37
2018-09-26T01:03:46.938Z,3.13
2018-09-26T01:06:26.373Z,2.30
2018-09-26T01:08:58.536Z,2.20
2018-09-26T01:11:26.786Z,2.30
2018-09-26T01:13:55.212Z,2.10
2018-09-26T01:16:26.383Z,2.30
2018-09-26T01:19:08.249Z,2.00
2018-09-26T01:21:36.342Z,2.17
2018-09-26T01:24:10.631Z,2.20
2018-09-26T01:26:43.902Z,2.50
2018-09-26T01:29:12.079Z,2.07
2018-09-26T01:31:40.256Z,2.23
2018-09-26T01:34:12.340Z,2.37
2018-09-26T01:36:40.594Z,2.57
2018-09-26T01:39:09.366Z,2.07
2018-09-26T01:41:39.496Z,1.87
2018-09-26T01:44:07.596Z,2.17
2018-09-26T01:46:39.827Z,2.33
2018-09-26T01:49:10.375Z,2.00
2018-09-26T01:51:40.706Z,2.40
2018-09-26T01:54:08.849Z,1.80
2018-09-26T01:56:41.050Z,1.97
2018-09-26T01:59:19.305Z,2.67
2018-09-26T02:01:50.504Z,3.17
2018-09-26T02:04:18.600Z,2.10
2018-09-26T02:06:51.571Z,2.40
2018-09-26T02:09:19.888Z,2.23
2018-09-26T02:11:48.083Z,2.43
2018-09-26T02:14:22.477Z,2.50
2018-09-26T02:16:55.390Z,2.37
2018-09-26T02:19:23.714Z,2.70
2018-09-26T02:21:51.726Z,2.30
2018-09-26T02:24:23.945Z,2.63
2018-09-26T02:26:52.221Z,2.40
2018-09-26T02:29:20.330Z,2.37
2018-09-26T02:31:58.595Z,2.60
2018-09-26T02:34:38.272Z,2.70
2018-09-26T02:37:12.960Z,2.83
2018-09-26T02:39:41.141Z,2.33
2018-09-26T02:42:15.662Z,2.70
2018-09-26T02:44:46.399Z,2.40
2018-09-26T02:47:14.556Z,2.30
2018-09-26T02:49:49.042Z,2.30
2018-09-26T02:52:24.314Z,2.13
2018-09-26T02:55:04.118Z,2.73
2018-09-26T02:57:32.405Z,2.43
2018-09-26T03:00:05.764Z,2.60
2018-09-26T03:02:38.880Z,2.40
2018-09-26T03:05:09.930Z,2.63
2018-09-26T03:07:38.030Z,2.23
2018-09-26T03:10:10.217Z,2.10
2018-09-26T03:12:38.681Z,2.53
2018-09-26T03:15:06.958Z,2.70
2018-09-26T03:17:35.149Z,2.30
2018-09-26T03:20:09.346Z,2.60
2018-09-26T03:22:41.503Z,2.33
2018-09-26T03:25:09.663Z,2.30
2018-09-26T03:27:46.054Z,2.70
2018-09-26T03:30:18.705Z,2.57
2018-09-26T03:32:46.910Z,2.13
2018-09-26T03:35:19.962Z,2.33
2018-09-26T03:37:50.300Z,2.30
2018-09-26T03:40:18.625Z,2.37
2018-09-26T03:42:46.761Z,2.70
2018-09-26T03:45:26.554Z,2.33
2018-09-26T03:47:54.772Z,2.70
2018-09-26T03:50:34.509Z,2.23
2018-09-26T03:53:02.812Z,2.87
2018-09-26T03:55:35.270Z,1.93
2018-09-26T03:58:06.396Z,1.93
2018-09-26T04:00:40.753Z,1.90
2018-09-26T04:03:27.025Z,2.13
2018-09-26T04:08:40.096Z,1.80
2018-09-26T04:11:14.309Z,1.90
2018-09-26T04:13:48.634Z,2.00
2018-09-26T04:16:16.847Z,2.00
2018-09-26T04:18:44.943Z,2.33
2018-09-26T04:21:19.278Z,1.80
2018-09-26T04:23:52.599Z,2.13
2018-09-26T04:26:24.883Z,2.27
2018-09-26T04:28:53.233Z,1.90
2018-09-26T04:31:21.309Z,1.80
2018-09-26T04:33:57.592Z,1.97
2018-09-26T04:36:35.765Z,2.03
2018-09-26T04:39:07.739Z,1.97
2018-09-26T04:41:44.345Z,1.70
2018-09-26T04:44:16.690Z,1.80
2018-09-26T04:46:55.592Z,1.87
2018-09-26T04:49:33.194Z,2.30
2018-09-26T04:52:05.300Z,3.50
2018-09-26T04:54:33.430Z,4.43
2018-09-26T04:57:07.706Z,3.23
2018-09-26T04:59:42.049Z,2.37
2018-09-26T05:02:23.793Z,3.47
2018-09-26T05:04:56.171Z,1.63
2018-09-26T05:07:27.151Z,1.60
2018-09-26T05:09:58.533Z,1.97
2018-09-26T05:12:26.568Z,2.17
2018-09-26T05:15:00.763Z,1.80
2018-09-26T05:17:40.656Z,2.50
2018-09-26T05:20:08.764Z,2.33
2018-09-26T05:22:44.200Z,1.50
2018-09-26T05:25:17.557Z,2.00
2018-09-26T05:27:50.596Z,1.70
2018-09-26T05:30:18.695Z,2.20
2018-09-26T05:32:53.232Z,1.80
2018-09-26T05:35:27.651Z,1.67
2018-09-26T05:38:02.089Z,2.30
2018-09-26T05:40:34.210Z,1.80
2018-09-26T05:43:06.824Z,2.00
2018-09-26T05:45:38.952Z,1.60
2018-09-26T05:48:07.263Z,1.90
2018-09-26T05:50:35.304Z,1.80
2018-09-26T05:53:09.019Z,1.80
2018-09-26T05:55:43.505Z,1.73
2018-09-26T05:58:21.103Z,1.50
2018-09-26T06:00:49.327Z,1.70
2018-09-26T06:03:26.655Z,1.90
2018-09-26T06:06:01.003Z,1.80
2018-09-26T06:08:35.256Z,2.03
2018-09-26T06:11:07.515Z,1.93
2018-09-26T06:13:35.794Z,2.43
2018-09-26T06:16:03.894Z,2.30
2018-09-26T06:18:36.256Z,1.83
2018-09-26T06:21:06.403Z,1.40
2018-09-26T06:23:34.614Z,1.80
2018-09-26T06:26:05.527Z,1.57
2018-09-26T06:28:35.697Z,1.30
2018-09-26T06:31:03.843Z,1.50
2018-09-26T06:33:34.904Z,1.20
2018-09-26T06:36:03.449Z,1.47
2018-09-26T06:38:33.831Z,1.83
2018-09-26T06:41:02.049Z,2.23
2018-09-26T06:43:32.917Z,1.03
2018-09-26T06:46:00.973Z,1.90
2018-09-26T06:48:40.637Z,1.80
2018-09-26T06:51:08.706Z,1.40
2018-09-26T06:53:40.795Z,1.53
2018-09-26T06:56:09.309Z,1.50
2018-09-26T06:58:40.375Z,1.50
2018-09-26T07:01:11.335Z,1.57
2018-09-26T07:03:51.014Z,1.43
2018-09-26T07:06:21.812Z,1.70
2018-09-26T07:08:49.869Z,1.50
2018-09-26T07:11:22.941Z,1.20
2018-09-26T07:13:50.960Z,1.70
2018-09-26T07:16:21.884Z,1.63
2018-09-26T07:18:49.954Z,1.30
2018-09-26T07:21:30.539Z,1.30
2018-09-26T07:24:01.370Z,1.20
2018-09-26T07:26:29.522Z,1.50
2018-09-26T07:29:04.854Z,1.40
2018-09-26T07:31:37.381Z,1.37
2018-09-26T07:34:11.577Z,1.30
2018-09-26T07:36:44.716Z,1.40
2018-09-26T07:39:15.854Z,1.27
2018-09-26T07:41:43.971Z,1.33
2018-09-26T07:44:16.341Z,1.60
2018-09-26T07:46:52.867Z,1.13
2018-09-26T07:49:29.782Z,1.70
2018-09-26T07:51:57.870Z,1.30
2018-09-26T07:54:30.170Z,1.30
2018-09-26T07:57:02.412Z,1.47
2018-09-26T07:59:30.548Z,1.40
2018-09-26T08:01:58.973Z,1.47
2018-09-26T08:04:30.095Z,1.30
2018-09-26T08:07:10.922Z,1.43
2018-09-26T08:09:39.119Z,1.33
2018-09-26T08:12:13.676Z,1.67
2018-09-26T08:14:51.168Z,1.20
2018-09-26T08:17:23.495Z,1.13
2018-09-26T08:20:05.823Z,1.83
2018-09-26T08:22:36.854Z,1.40
2018-09-26T08:25:05.011Z,1.27
2018-09-26T08:27:37.258Z,2.53
2018-09-26T08:30:09.513Z,1.60
2018-09-26T08:32:38.100Z,1.40
2018-09-26T08:35:18.071Z,1.63
2018-09-26T08:37:46.178Z,1.30
2018-09-26T08:40:17.141Z,1.30
2018-09-26T08:42:45.365Z,1.40
2018-09-26T08:45:13.481Z,2.07
2018-09-26T08:47:47.860Z,1.70
2018-09-26T08:50:27.867Z,1.57
2018-09-26T08:52:56.007Z,1.80
2018-09-26T08:55:28.914Z,1.40
2018-09-26T08:57:57.465Z,1.30
2018-09-26T09:00:31.346Z,1.40
2018-09-26T09:03:04.774Z,1.70
2018-09-26T09:05:39.680Z,1.60
2018-09-26T09:08:07.770Z,1.67
2018-09-26T09:10:42.029Z,1.57
2018-09-26T09:13:14.075Z,1.70
2018-09-26T09:15:42.457Z,1.60
2018-09-26T09:18:10.529Z,1.27
2018-09-26T09:20:45.954Z,1.60
2018-09-26T09:23:20.490Z,1.50
2018-09-26T09:25:56.025Z,1.50
2018-09-26T09:28:34.284Z,1.70
2018-09-26T09:31:04.403Z,1.50
2018-09-26T09:33:32.502Z,1.43
2018-09-26T09:36:03.354Z,1.10
2018-09-26T09:38:31.655Z,1.20
2018-09-26T09:40:59.795Z,1.33
2018-09-26T09:43:32.070Z,1.30
2018-09-26T09:46:06.956Z,1.47
2018-09-26T09:48:35.186Z,1.60
2018-09-26T09:51:15.033Z,1.53
2018-09-26T09:53:43.205Z,1.60
2018-09-26T09:56:23.665Z,1.37
2018-09-26T09:58:51.784Z,1.60
2018-09-26T10:04:00.687Z,1.63
2018-09-26T10:06:31.928Z,2.10
2018-09-26T10:09:00.324Z,1.80
2018-09-26T10:11:29.221Z,1.60
2018-09-26T10:14:01.645Z,1.67
2018-09-26T10:16:32.607Z,1.63
2018-09-26T10:19:00.706Z,1.40
2018-09-26T10:21:37.166Z,1.50
2018-09-26T10:24:09.339Z,1.50
2018-09-26T10:26:39.410Z,1.70
2018-09-26T10:29:07.818Z,1.60
2018-09-26T10:31:38.723Z,1.47
2018-09-26T10:34:06.819Z,1.60
2018-09-26T10:36:44.456Z,2.00
2018-09-26T10:39:12.587Z,1.63
2018-09-26T10:41:43.540Z,1.40
2018-09-26T10:44:11.707Z,1.60
2018-09-26T10:46:42.617Z,1.70
2018-09-26T10:49:12.921Z,1.70
2018-09-26T10:51:41.048Z,1.90
2018-09-26T10:54:12.076Z,1.73
2018-09-26T10:56:43.126Z,1.80
2018-09-26T10:59:15.577Z,1.80
2018-09-26T11:01:46.260Z,1.60
2018-09-26T11:04:14.390Z,1.77
2018-09-26T11:06:48.630Z,1.40
2018-09-26T11:09:19.729Z,1.70
2018-09-26T11:11:47.861Z,1.97
2018-09-26T11:14:22.489Z,1.63
2018-09-26T11:16:53.326Z,1.80
2018-09-26T11:19:21.661Z,2.50
2018-09-26T11:21:49.731Z,1.50
2018-09-26T11:24:25.184Z,1.63
2018-09-26T11:26:58.074Z,1.57
2018-09-26T11:29:26.143Z,1.43
2018-09-26T11:31:57.185Z,1.60
2018-09-26T11:34:25.377Z,1.67
2018-09-26T11:36:53.408Z,2.10
2018-09-26T11:39:26.843Z,1.77
2018-09-26T11:41:57.841Z,1.50
2018-09-26T11:44:26.091Z,1.63
2018-09-26T11:46:57.367Z,1.60
2018-09-26T11:49:28.247Z,2.10
2018-09-26T11:51:56.301Z,2.00
2018-09-26T11:54:29.830Z,1.70
2018-09-26T11:57:00.716Z,1.90
2018-09-26T11:59:28.799Z,1.70
2018-09-26T12:02:04.718Z,2.00
2018-09-26T12:04:32.904Z,1.80
2018-09-26T12:07:07.390Z,1.90
2018-09-26T12:09:35.990Z,2.37
2018-09-26T12:12:04.144Z,1.83
2018-09-26T12:14:35.063Z,2.03
2018-09-26T12:17:03.179Z,2.00
2018-09-26T12:19:36.520Z,1.87
2018-09-26T12:22:16.411Z,1.90
2018-09-26T12:24:44.514Z,2.13
2018-09-26T12:27:19.070Z,1.90
2018-09-26T12:29:47.110Z,1.77
2018-09-26T12:32:15.404Z,1.87
2018-09-26T12:34:43.581Z,1.80
2018-09-26T12:37:11.854Z,1.83
2018-09-26T12:39:43.093Z,1.93
2018-09-26T12:42:11.331Z,2.00
2018-09-26T12:44:39.406Z,2.00
2018-09-26T12:47:13.830Z,2.20
2018-09-26T12:49:46.804Z,2.20
2018-09-26T12:52:14.882Z,2.10
2018-09-26T12:54:49.503Z,2.00
2018-09-26T12:57:20.339Z,2.27
2018-09-26T12:59:48.661Z,2.10
2018-09-26T13:02:24.022Z,2.10
2018-09-26T13:04:56.413Z,2.10
2018-09-26T13:07:29.484Z,2.30
2018-09-26T13:10:02.762Z,1.77
2018-09-26T13:12:33.892Z,1.90
2018-09-26T13:15:02.145Z,1.97
2018-09-26T13:17:33.076Z,1.93
2018-09-26T13:20:01.399Z,1.73
2018-09-26T13:22:29.596Z,2.03
2018-09-26T13:25:03.940Z,2.30
2018-09-26T13:27:38.176Z,2.00
2018-09-26T13:30:06.584Z,1.83
2018-09-26T13:32:36.751Z,1.67
2018-09-26T13:35:05.243Z,1.93
2018-09-26T13:37:33.317Z,1.77
2018-09-26T13:40:13.095Z,1.90
2018-09-26T13:42:41.138Z,2.00
2018-09-26T13:45:25.978Z,1.77
2018-09-26T13:47:54.076Z,1.77
2018-09-26T13:50:24.967Z,1.87
2018-09-26T13:52:52.980Z,1.33
2018-09-26T13:55:26.084Z,1.90
2018-09-26T13:57:54.183Z,1.90
2018-09-26T14:00:28.730Z,2.07
2018-09-26T14:03:01.057Z,1.87
2018-09-26T14:05:32.127Z,1.50
2018-09-26T14:08:03.086Z,1.83
2018-09-26T14:10:34.434Z,1.70
2018-09-26T14:13:05.506Z,1.73
2018-09-26T14:15:33.485Z,1.70
2018-09-26T14:18:16.952Z,1.80
2018-09-26T14:20:49.054Z,1.83
2018-09-26T14:23:20.140Z,1.50
2018-09-26T14:25:48.226Z,1.70
2018-09-26T14:28:21.337Z,1.50
2018-09-26T14:31:02.159Z,1.80
2018-09-26T14:33:35.070Z,2.00
2018-09-26T14:36:03.101Z,2.27
2018-09-26T14:38:42.780Z,1.43
2018-09-26T14:41:11.067Z,1.87
2018-09-26T14:43:43.423Z,2.40
2018-09-26T14:46:17.855Z,1.70
2018-09-26T14:48:52.390Z,1.43
2018-09-26T14:51:22.502Z,1.57
2018-09-26T14:53:53.531Z,1.60
2018-09-26T14:56:21.760Z,1.57
2018-09-26T14:58:55.019Z,1.50
2018-09-26T15:01:28.011Z,1.60
2018-09-26T15:03:56.028Z,1.80
2018-09-26T15:06:29.224Z,1.70
2018-09-26T15:08:59.338Z,1.90
2018-09-26T15:11:27.419Z,1.63
2018-09-26T15:13:55.663Z,1.40
2018-09-26T15:16:29.650Z,1.57
2018-09-26T15:19:01.980Z,1.30
2018-09-26T15:21:34.893Z,2.10
2018-09-26T15:24:02.883Z,2.00
2018-09-26T15:26:38.262Z,1.60
2018-09-26T15:29:07.127Z,1.87
2018-09-26T15:31:35.285Z,2.13
2018-09-26T15:34:04.095Z,1.70
2018-09-26T15:36:32.181Z,2.27
2018-09-26T15:39:07.483Z,1.83
2018-09-26T15:41:41.030Z,2.00
2018-09-26T15:44:12.221Z,1.53
2018-09-26T15:46:40.636Z,1.60
2018-09-26T15:49:09.256Z,1.43
2018-09-26T15:51:37.487Z,1.50
2018-09-26T15:54:05.597Z,1.70
2018-09-26T15:56:36.439Z,1.70
2018-09-26T15:59:04.611Z,1.60
2018-09-26T16:01:35.742Z,1.73
2018-09-26T16:04:04.022Z,1.70
2018-09-26T16:06:32.073Z,1.73
2018-09-26T16:09:06.644Z,1.80
2018-09-26T16:11:37.443Z,1.40
2018-09-26T16:14:05.508Z,1.90
2018-09-26T16:16:37.843Z,2.20
2018-09-26T16:19:11.184Z,1.50
2018-09-26T16:21:39.170Z,1.57
2018-09-26T16:24:11.527Z,1.90
2018-09-26T16:26:44.549Z,1.67
2018-09-26T16:29:12.730Z,1.27
2018-09-26T16:31:40.854Z,2.10
2018-09-26T16:34:11.691Z,1.67
2018-09-26T16:36:39.790Z,1.50
2018-09-26T16:39:14.768Z,1.90
2018-09-26T16:41:45.958Z,1.83
2018-09-26T16:44:26.654Z,1.70
2018-09-26T16:47:07.856Z,1.53
2018-09-26T16:49:36.076Z,1.97
2018-09-26T16:52:13.895Z,1.80
2018-09-26T16:54:41.912Z,1.77
2018-09-26T16:57:22.297Z,1.97
2018-09-26T16:59:55.398Z,1.90
2018-09-26T17:02:23.737Z,1.93
2018-09-26T17:04:52.001Z,1.87
2018-09-26T17:07:22.057Z,2.07
2018-09-26T17:09:53.892Z,1.70
2018-09-26T17:12:28.233Z,2.10
2018-09-26T17:15:01.221Z,1.57
2018-09-26T17:17:29.446Z,2.10
2018-09-26T17:19:57.672Z,2.00
2018-09-26T17:22:30.708Z,1.90
2018-09-26T17:25:06.129Z,2.03
2018-09-26T17:27:34.262Z,2.03
2018-09-26T17:30:05.176Z,1.97
2018-09-26T17:32:36.183Z,2.07
2018-09-26T17:35:05.056Z,2.10
2018-09-26T17:37:33.241Z,2.00
2018-09-26T17:40:04.800Z,2.07
2018-09-26T17:42:32.812Z,3.07
2018-09-26T17:45:06.783Z,2.27
2018-09-26T17:47:34.791Z,2.67
2018-09-26T17:50:07.641Z,3.27
2018-09-26T17:52:35.846Z,2.40
2018-09-26T17:55:06.665Z,2.53
2018-09-26T17:57:34.770Z,2.30
2018-09-26T18:00:05.799Z,2.30
2018-09-26T18:02:33.909Z,3.17
2018-09-26T18:05:07.157Z,2.50
2018-09-26T18:07:47.092Z,2.60
2018-09-26T18:10:15.185Z,2.60
2018-09-26T18:12:48.281Z,2.67
2018-09-26T18:15:19.195Z,2.67
2018-09-26T18:17:53.747Z,3.03
2018-09-26T18:20:27.099Z,2.77
2018-09-26T18:23:00.014Z,2.17
2018-09-26T18:25:28.097Z,2.80
2018-09-26T18:28:02.496Z,2.53
2018-09-26T18:30:40.881Z,3.27
2018-09-26T18:33:13.847Z,2.70
2018-09-26T18:35:42.108Z,2.20
2018-09-26T18:38:10.145Z,2.30
2018-09-26T18:40:40.319Z,2.63
2018-09-26T18:43:10.442Z,2.27
2018-09-26T18:45:43.486Z,2.30
2018-09-26T18:48:19.412Z,2.40
2018-09-26T18:50:47.650Z,2.23
2018-09-26T18:53:22.119Z,2.43
2018-09-26T18:55:56.272Z,2.30
2018-09-26T18:58:26.514Z,2.43
2018-09-26T19:00:54.952Z,2.50
2018-09-26T19:03:23.031Z,2.53
2018-09-26T19:05:57.650Z,2.90
2018-09-26T19:08:32.999Z,2.47
2018-09-26T19:11:07.410Z,2.60
2018-09-26T19:16:15.431Z,2.70
2018-09-26T19:18:43.659Z,2.70
2018-09-26T19:21:15.097Z,2.80
2018-09-26T19:23:50.703Z,2.83
2018-09-26T19:26:31.374Z,2.60
2018-09-26T19:28:59.518Z,2.63
2018-09-26T19:31:37.047Z,2.27
2018-09-26T19:34:07.875Z,2.80
2018-09-26T19:36:36.037Z,2.67
2018-09-26T19:39:07.641Z,3.17
2018-09-26T19:41:35.765Z,2.80
2018-09-26T19:44:12.073Z,2.90
2018-09-26T19:46:42.336Z,2.77
2018-09-26T19:49:12.718Z,3.20
2018-09-26T19:51:40.811Z,3.13
2018-09-26T19:54:15.430Z,3.30
2018-09-26T19:56:43.763Z,3.40
2018-09-26T19:59:18.483Z,3.30
2018-09-26T20:01:46.626Z,3.23
2018-09-26T20:04:17.730Z,3.47
2018-09-26T20:06:48.817Z,3.17
2018-09-26T20:09:17.120Z,3.30
2018-09-26T20:11:56.861Z,3.30
2018-09-26T20:14:24.940Z,3.80
2018-09-26T20:17:04.604Z,3.77
2018-09-26T20:19:32.640Z,3.23
2018-09-26T20:22:12.657Z,2.97
2018-09-26T20:24:40.739Z,3.47
2018-09-26T20:27:16.663Z,4.03
2018-09-26T20:29:44.844Z,3.30
2018-09-26T20:32:19.281Z,3.70
2018-09-26T20:34:52.324Z,3.50
2018-09-26T20:37:22.528Z,3.87
2018-09-26T20:39:50.621Z,3.87
2018-09-26T20:42:30.193Z,4.00
2018-09-26T20:44:58.333Z,3.53
2018-09-26T20:47:33.858Z,3.70
2018-09-26T20:50:07.257Z,3.60
2018-09-26T20:52:47.306Z,3.57
2018-09-26T20:55:18.353Z,3.20
2018-09-26T20:57:51.665Z,3.77
2018-09-26T21:00:26.326Z,4.30
2018-09-26T21:02:54.366Z,3.77
2018-09-26T21:05:25.406Z,3.63
2018-09-26T21:07:53.452Z,3.70
2018-09-26T21:10:24.692Z,3.60
2018-09-26T21:12:54.719Z,4.20
2018-09-26T21:15:22.773Z,3.40
2018-09-26T21:17:56.079Z,3.30
2018-09-26T21:20:27.116Z,3.97
2018-09-26T21:22:58.006Z,3.30
2018-09-26T21:25:26.217Z,4.10
2018-09-26T21:27:54.289Z,3.50
2018-09-26T21:30:27.451Z,3.13
2018-09-26T21:32:57.950Z,3.53
2018-09-26T21:35:26.177Z,3.40
2018-09-26T21:37:54.264Z,3.40
2018-09-26T21:40:32.376Z,3.30
2018-09-26T21:43:02.802Z,3.83
2018-09-26T21:45:31.139Z,3.57
2018-09-26T21:47:59.227Z,3.10
2018-09-26T21:50:34.715Z,3.33
2018-09-26T21:53:10.955Z,3.63
2018-09-26T21:55:41.791Z,3.80
2018-09-26T21:58:09.986Z,3.40
2018-09-26T22:00:47.869Z,3.63
2018-09-26T22:03:15.946Z,3.20
2018-09-26T22:05:46.994Z,2.97
2018-09-26T22:08:15.255Z,3.77
2018-09-26T22:10:43.374Z,4.10
2018-09-26T22:13:14.168Z,3.80
2018-09-26T22:15:42.249Z,3.97
2018-09-26T22:18:14.466Z,3.40
2018-09-26T22:20:44.775Z,3.63
2018-09-26T22:23:13.183Z,3.50
2018-09-26T22:25:41.248Z,3.67
2018-09-26T22:28:13.757Z,4.03
2018-09-26T22:30:55.639Z,4.00
2018-09-26T22:33:23.733Z,3.70
2018-09-26T22:36:03.640Z,4.00
2018-09-26T22:38:31.816Z,3.60
2018-09-26T22:41:04.104Z,4.80
2018-09-26T22:43:45.854Z,3.30
2018-09-26T22:46:14.003Z,3.87
2018-09-26T22:48:46.968Z,3.90
2018-09-26T22:51:15.207Z,3.83
2018-09-26T22:53:43.405Z,3.67
2018-09-26T22:56:14.444Z,4.33
2018-09-26T22:58:42.721Z,3.77
2018-09-26T23:01:10.781Z,4.00
2018-09-26T23:03:51.041Z,3.67
2018-09-26T23:06:29.051Z,4.27
2018-09-26T23:08:57.106Z,4.20
2018-09-26T23:11:31.678Z,4.13
2018-09-26T23:14:09.138Z,3.90
2018-09-26T23:16:43.546Z,3.90
2018-09-26T23:19:17.847Z,3.93
2018-09-26T23:21:48.816Z,4.23
2018-09-26T23:24:16.885Z,4.10
2018-09-26T23:26:52.330Z,3.93
2018-09-26T23:29:23.358Z,4.40
2018-09-26T23:31:53.516Z,4.17
2018-09-26T23:34:21.625Z,4.10
2018-09-26T23:37:04.240Z,3.97
2018-09-26T23:39:41.974Z,3.87
2018-09-26T23:42:10.047Z,4.00
2018-09-26T23:44:41.019Z,4.20
2018-09-26T23:47:09.027Z,4.20
2018-09-26T23:49:40.133Z,4.30
2018-09-26T23:52:11.114Z,3.93
2018-09-26T23:54:48.770Z,4.27
2018-09-26T23:57:16.803Z,4.03
2018-09-26T23:59:49.936Z,4.23
